Time;durP1;ratioP1;P1;durP2;ratioP2;P2;SDS_P1;SDS_P2;PMS_P1;PMS_P2;Temp;Humidity;BMP_temperature;BMP_pressure;BME280_temperature;BME280_humidity;BME280_pressure;Samples;Min_cycle;Max_cycle;Signal;HPM_P1;HPM_P2
2021/04/14 00:00:23;;;;;;;5.43;1.43;;;;;;;3.41;93.27;99293.25;5016402;28;20207;-71
2021/04/14 00:02:49;;;;;;;3.60;1.47;;;;;;;3.42;92.81;99287.03;5027807;28;20214;-71
2021/04/14 00:05:19;;;;;;;3.30;1.30;;;;;;;3.29;94.67;99290.78;5025534;28;20694;-72
2021/04/14 00:07:48;;;;;;;2.53;1.17;;;;;;;3.20;94.84;99292.38;5032499;28;20203;-73
2021/04/14 00:10:18;;;;;;;3.80;1.53;;;;;;;3.31;94.99;99291.50;5032162;28;20220;-72
2021/04/14 00:12:45;;;;;;;1.47;1.03;;;;;;;3.23;95.89;99291.28;5030721;28;20229;-71
2021/04/14 00:15:15;;;;;;;2.93;1.10;;;;;;;3.29;95.33;99282.88;5031345;28;20248;-72
2021/04/14 00:17:42;;;;;;;1.90;1.50;;;;;;;3.17;96.32;99284.72;5027714;28;20203;-71
2021/04/14 00:20:11;;;;;;;4.23;1.43;;;;;;;3.18;95.77;99285.53;5028828;28;20301;-73
2021/04/14 00:22:39;;;;;;;1.53;1.07;;;;;;;2.97;95.65;99287.25;5027974;28;20295;-71
2021/04/14 00:25:08;;;;;;;3.23;1.10;;;;;;;2.94;95.82;99285.72;5027911;28;20241;-71
2021/04/14 00:27:38;;;;;;;2.03;1.10;;;;;;;2.89;97.30;99282.59;5030385;28;20236;-72
2021/04/14 00:30:08;;;;;;;2.10;1.10;;;;;;;3.09;95.20;99276.56;5031264;28;20209;-72
2021/04/14 00:32:35;;;;;;;3.20;1.40;;;;;;;3.08;95.13;99281.97;5025390;28;20229;-72
2021/04/14 00:35:02;;;;;;;2.40;1.10;;;;;;;3.06;94.97;99276.81;5028861;28;20248;-72
2021/04/14 00:37:29;;;;;;;2.50;1.20;;;;;;;3.03;97.06;99278.84;5029965;28;20210;-72
2021/04/14 00:39:57;;;;;;;2.03;1.13;;;;;;;2.96;97.03;99277.69;5031454;28;20206;-70
2021/04/14 00:42:24;;;;;;;3.10;1.33;;;;;;;2.88;97.49;99270.38;5025506;28;20251;-72
2021/04/14 00:44:51;;;;;;;2.10;1.23;;;;;;;2.82;99.03;99270.88;5026504;28;20296;-72
2021/04/14 00:47:18;;;;;;;5.60;1.57;;;;;;;2.86;98.55;99271.47;5029634;28;20199;-71
2021/04/14 00:49:46;;;;;;;1.33;1.00;;;;;;;2.85;97.96;99267.16;5026782;28;20311;-71
2021/04/14 00:52:15;;;;;;;4.77;1.80;;;;;;;2.75;98.11;99263.59;5019060;28;20774;-73
2021/04/14 00:54:41;;;;;;;4.30;1.33;;;;;;;2.85;97.09;99265.34;5020899;28;20230;-71
2021/04/14 00:57:08;;;;;;;2.37;1.20;;;;;;;2.77;96.82;99265.13;5029364;28;20631;-71
2021/04/14 00:59:36;;;;;;;3.97;1.20;;;;;;;2.76;97.83;99263.47;5025389;28;20293;-71
2021/04/14 01:02:04;;;;;;;1.93;1.40;;;;;;;2.72;97.75;99266.44;5024308;28;20245;-71
2021/04/14 01:04:31;;;;;;;1.57;1.20;;;;;;;2.56;100.00;99263.34;5027750;28;20229;-71
2021/04/14 01:06:58;;;;;;;3.57;1.40;;;;;;;2.64;99.06;99253.06;5024509;28;20206;-70
2021/04/14 01:09:24;;;;;;;2.27;1.27;;;;;;;2.48;100.00;99258.69;5029979;28;20208;-71
2021/04/14 01:11:51;;;;;;;2.50;1.40;;;;;;;2.45;100.00;99258.91;5031357;28;20226;-72
2021/04/14 01:14:19;;;;;;;5.00;1.27;;;;;;;2.50;100.00;99256.75;5030479;28;20276;-72
2021/04/14 01:16:46;;;;;;;2.37;1.13;;;;;;;2.48;100.00;99253.41;5023888;28;20233;-70
2021/04/14 01:19:13;;;;;;;3.93;1.50;;;;;;;2.59;100.00;99244.69;5028230;28;20206;-70
2021/04/14 01:21:43;;;;;;;7.30;1.43;;;;;;;2.51;100.00;99247.91;5031080;28;20271;-71
2021/04/14 01:24:12;;;;;;;1.97;1.20;;;;;;;2.58;100.00;99257.00;5026466;28;20578;-71
2021/04/14 01:26:39;;;;;;;2.93;1.27;;;;;;;2.52;100.00;99246.94;5028099;28;20206;-71
2021/04/14 01:29:07;;;;;;;3.67;1.33;;;;;;;2.42;100.00;99247.78;5031261;28;20264;-70
2021/04/14 01:31:34;;;;;;;5.40;1.60;;;;;;;2.44;100.00;99249.34;5029822;28;20240;-71
2021/04/14 01:34:02;;;;;;;2.83;1.20;;;;;;;2.38;100.00;99255.09;5023501;28;20214;-70
2021/04/14 01:36:29;;;;;;;3.63;1.50;;;;;;;2.44;100.00;99248.50;5026619;28;20206;-70
2021/04/14 01:38:57;;;;;;;1.50;1.23;;;;;;;2.31;100.00;99250.41;5027073;28;20209;-72
2021/04/14 01:41:24;;;;;;;1.77;1.30;;;;;;;2.28;100.00;99248.84;5026098;28;20198;-71
2021/04/14 01:43:51;;;;;;;2.50;1.30;;;;;;;2.26;100.00;99253.41;5026534;28;20232;-72
2021/04/14 01:46:18;;;;;;;1.80;1.27;;;;;;;2.42;100.00;99250.41;5032793;28;20226;-72
2021/04/14 01:48:45;;;;;;;3.07;1.50;;;;;;;2.40;100.00;99242.63;5037375;28;20216;-72
2021/04/14 01:51:14;;;;;;;8.63;1.60;;;;;;;2.40;100.00;99247.06;5030697;28;20226;-71
2021/04/14 01:53:41;;;;;;;4.97;1.50;;;;;;;2.29;100.00;99245.25;5031495;28;20206;-72
2021/04/14 01:56:09;;;;;;;3.77;1.30;;;;;;;2.26;100.00;99245.50;5023365;28;20317;-72
2021/04/14 01:58:36;;;;;;;3.57;1.30;;;;;;;2.38;100.00;99249.81;5021751;28;20291;-71
2021/04/14 02:01:07;;;;;;;1.90;1.37;;;;;;;2.35;100.00;99242.13;5021617;28;20203;-72
2021/04/14 02:03:40;;;;;;;4.80;1.43;;;;;;;2.23;100.00;99239.63;5023575;28;20273;-72
2021/04/14 02:06:10;;;;;;;3.47;1.20;;;;;;;2.14;100.00;99237.72;5022558;28;20241;-71
2021/04/14 02:08:37;;;;;;;1.70;1.40;;;;;;;2.16;100.00;99234.03;5024152;28;20571;-72
2021/04/14 02:11:05;;;;;;;2.97;1.50;;;;;;;2.26;100.00;99236.78;5027470;28;20241;-71
2021/04/14 02:13:35;;;;;;;1.53;1.00;;;;;;;2.36;100.00;99235.94;5034499;28;20202;-71
2021/04/14 02:16:02;;;;;;;2.73;1.50;;;;;;;2.22;100.00;99237.94;5034338;28;20312;-72
2021/04/14 02:18:29;;;;;;;2.70;1.43;;;;;;;2.20;100.00;99234.63;5019822;28;20233;-74
2021/04/14 02:20:56;;;;;;;2.93;1.30;;;;;;;2.22;100.00;99235.31;5034334;28;20248;-72
2021/04/14 02:23:25;;;;;;;1.90;1.37;;;;;;;2.10;100.00;99242.41;5033275;28;20206;-72
2021/04/14 02:25:55;;;;;;;1.80;1.37;;;;;;;2.16;100.00;99235.81;5031247;28;20690;-73
2021/04/14 02:28:22;;;;;;;2.40;1.73;;;;;;;2.18;100.00;99237.34;5031262;28;20199;-73
2021/04/14 02:30:49;;;;;;;2.73;1.47;;;;;;;2.11;100.00;99235.31;5031214;28;20198;-73
2021/04/14 02:33:17;;;;;;;5.40;1.67;;;;;;;2.01;100.00;99237.84;5028994;28;20731;-71
2021/04/14 02:35:44;;;;;;;2.27;1.40;;;;;;;2.11;100.00;99240.59;5027597;28;20222;-72
2021/04/14 02:38:11;;;;;;;3.73;1.53;;;;;;;1.99;100.00;99236.28;5031389;28;20206;-72
2021/04/14 02:40:38;;;;;;;3.07;1.70;;;;;;;2.09;100.00;99234.63;5032061;28;20572;-73
2021/04/14 02:43:06;;;;;;;3.07;1.60;;;;;;;2.16;100.00;99233.16;5031193;28;20248;-71
2021/04/14 02:45:35;;;;;;;2.93;1.90;;;;;;;2.19;100.00;99232.94;5029570;28;20222;-71
2021/04/14 02:48:04;;;;;;;2.40;1.93;;;;;;;2.18;100.00;99226.00;5031621;28;20198;-72
2021/04/14 02:50:31;;;;;;;1.87;1.20;;;;;;;2.14;100.00;99228.00;5024754;28;20202;-72
2021/04/14 02:52:58;;;;;;;2.80;1.50;;;;;;;2.11;100.00;99225.63;5032777;28;21115;-72
2021/04/14 02:55:27;;;;;;;4.87;1.30;;;;;;;2.03;100.00;99227.19;5025979;28;20233;-72
2021/04/14 02:57:54;;;;;;;9.73;1.80;;;;;;;2.02;100.00;99225.50;5027945;28;20213;-72
2021/04/14 03:00:22;;;;;;;5.50;1.33;;;;;;;2.01;100.00;99222.03;5024815;28;20206;-73
2021/04/14 03:02:50;;;;;;;5.67;1.90;;;;;;;2.02;100.00;99220.22;5024155;28;20223;-73
2021/04/14 03:05:23;;;;;;;5.27;1.40;;;;;;;2.05;100.00;99231.38;5025223;28;20214;-72
2021/04/14 03:07:49;;;;;;;2.93;1.70;;;;;;;2.06;100.00;99222.53;5023299;28;20206;-73
2021/04/14 03:10:17;;;;;;;1.93;1.23;;;;;;;1.85;100.00;99221.53;5028868;28;20202;-72
2021/04/14 03:12:44;;;;;;;5.33;1.33;;;;;;;1.83;100.00;99219.97;5028082;28;20695;-73
2021/04/14 03:15:12;;;;;;;3.33;1.60;;;;;;;1.74;100.00;99210.97;5020758;28;20411;-73
2021/04/14 03:17:39;;;;;;;2.27;1.70;;;;;;;1.75;100.00;99217.09;5018617;28;20296;-72
2021/04/14 03:20:08;;;;;;;4.90;1.33;;;;;;;1.80;100.00;99212.31;5019475;28;20680;-70
2021/04/14 03:22:36;;;;;;;4.03;1.40;;;;;;;1.80;100.00;99214.94;5023690;28;20195;-71
2021/04/14 03:25:04;;;;;;;2.50;1.70;;;;;;;1.78;100.00;99211.59;5028529;28;20320;-70
2021/04/14 03:27:31;;;;;;;4.30;1.50;;;;;;;1.76;100.00;99202.97;5025768;28;20236;-70
2021/04/14 03:29:58;;;;;;;6.73;1.70;;;;;;;1.59;100.00;99195.53;5026279;28;20735;-71
2021/04/14 03:32:24;;;;;;;4.27;1.67;;;;;;;1.64;100.00;99193.38;5015725;28;20244;-70
2021/04/14 03:34:51;;;;;;;3.17;1.60;;;;;;;1.66;100.00;99197.56;5022972;28;20717;-73
2021/04/14 03:37:18;;;;;;;3.47;1.77;;;;;;;1.89;100.00;99195.81;5024447;28;20222;-71
2021/04/14 03:39:46;;;;;;;3.07;1.53;;;;;;;1.75;100.00;99196.88;5031717;28;20236;-72
2021/04/14 03:42:13;;;;;;;5.50;2.40;;;;;;;1.79;100.00;99189.59;5031009;28;20609;-70
2021/04/14 03:44:40;;;;;;;4.30;1.53;;;;;;;1.75;100.00;99196.03;5025285;28;20222;-70
2021/04/14 03:47:07;;;;;;;3.57;1.70;;;;;;;1.61;100.00;99197.09;5031392;28;20280;-69
2021/04/14 03:49:34;;;;;;;3.07;1.50;;;;;;;1.71;100.00;99191.94;5032098;28;20207;-70
2021/04/14 03:52:01;;;;;;;3.73;1.30;;;;;;;1.71;100.00;99199.84;5030414;28;20233;-71
2021/04/14 03:54:29;;;;;;;8.00;2.10;;;;;;;1.70;100.00;99187.66;5023823;28;20222;-70
2021/04/14 03:56:56;;;;;;;4.40;2.13;;;;;;;1.56;100.00;99191.34;5031454;28;20208;-70
2021/04/14 03:59:23;;;;;;;2.80;1.60;;;;;;;1.75;100.00;99190.78;5028240;28;20291;-70
2021/04/14 04:01:52;;;;;;;4.47;1.70;;;;;;;1.66;100.00;99180.94;5030497;28;20664;-72
2021/04/14 04:04:19;;;;;;;3.80;1.93;;;;;;;1.67;100.00;99186.09;5030220;28;20313;-70
2021/04/14 04:06:46;;;;;;;4.73;1.90;;;;;;;1.58;100.00;99192.03;5027191;28;20256;-70
2021/04/14 04:09:13;;;;;;;3.90;1.83;;;;;;;1.57;100.00;99192.16;5028509;28;20210;-70
2021/04/14 04:11:40;;;;;;;3.73;1.57;;;;;;;1.55;100.00;99192.31;5029486;28;20282;-73
2021/04/14 04:14:07;;;;;;;4.03;1.60;;;;;;;1.57;100.00;99193.00;5025878;28;20203;-71
2021/04/14 04:16:34;;;;;;;3.50;1.90;;;;;;;1.53;100.00;99196.00;5027462;28;20203;-73
2021/04/14 04:19:01;;;;;;;2.93;2.00;;;;;;;1.41;100.00;99197.75;5024860;28;20667;-72
2021/04/14 04:21:28;;;;;;;6.37;1.70;;;;;;;1.59;100.00;99200.78;5024790;28;20207;-70
2021/04/14 04:23:55;;;;;;;7.40;1.90;;;;;;;1.58;100.00;99194.69;5030559;28;20218;-71
2021/04/14 04:26:21;;;;;;;3.63;1.90;;;;;;;1.56;100.00;99201.00;5031874;28;20208;-72
2021/04/14 04:28:48;;;;;;;4.00;1.70;;;;;;;1.54;100.00;99195.03;5026300;28;20293;-71
2021/04/14 04:31:16;;;;;;;3.93;1.43;;;;;;;1.59;100.00;99196.34;5022874;28;20248;-72
2021/04/14 04:33:43;;;;;;;3.77;1.70;;;;;;;1.40;100.00;99200.50;5027138;28;20214;-74
2021/04/14 04:36:10;;;;;;;3.60;1.90;;;;;;;1.57;100.00;99208.78;5024017;28;20240;-73
2021/04/14 04:38:37;;;;;;;5.97;1.97;;;;;;;1.61;100.00;99206.75;5039444;28;20345;-71
2021/04/14 04:41:05;;;;;;;6.50;2.10;;;;;;;1.70;100.00;99203.44;5032439;28;20748;-71
2021/04/14 04:43:32;;;;;;;5.80;1.57;;;;;;;1.64;100.00;99204.72;5033061;28;20206;-72
2021/04/14 04:45:59;;;;;;;4.93;1.90;;;;;;;1.64;100.00;99204.72;5034603;28;20270;-72
2021/04/14 04:48:26;;;;;;;6.87;1.83;;;;;;;1.78;100.00;99207.16;5030711;28;20194;-70
2021/04/14 04:50:53;;;;;;;5.77;2.53;;;;;;;1.68;100.00;99211.44;5025135;28;20211;-71
2021/04/14 04:53:22;;;;;;;4.00;1.93;;;;;;;1.71;100.00;99213.84;5018663;28;20213;-71
2021/04/14 04:55:50;;;;;;;9.07;2.87;;;;;;;1.83;100.00;99217.34;5024159;28;20233;-70
2021/04/14 04:58:17;;;;;;;5.00;2.27;;;;;;;1.93;100.00;99211.25;5031157;28;20573;-72
2021/04/14 05:00:46;;;;;;;4.50;2.07;;;;;;;1.93;100.00;99219.16;5029550;28;20719;-70
2021/04/14 05:03:14;;;;;;;8.67;2.13;;;;;;;1.80;100.00;99221.06;5022710;28;20210;-71
2021/04/14 05:05:43;;;;;;;5.63;2.00;;;;;;;1.89;100.00;99219.50;5027721;28;20225;-72
2021/04/14 05:08:11;;;;;;;5.10;1.93;;;;;;;2.06;100.00;99219.91;5028513;28;20573;-79
2021/04/14 05:10:38;;;;;;;4.83;2.33;;;;;;;2.29;100.00;99220.75;5030974;28;20221;-71
2021/04/14 05:13:07;;;;;;;4.30;1.97;;;;;;;2.48;100.00;99220.94;5031101;28;20316;-69
2021/04/14 05:15:35;;;;;;;7.50;2.20;;;;;;;2.67;100.00;99216.75;5029351;28;20225;-73
2021/04/14 05:18:02;;;;;;;5.33;2.00;;;;;;;2.78;100.00;99216.72;5030094;28;20197;-72
2021/04/14 05:20:29;;;;;;;3.83;2.20;;;;;;;2.96;100.00;99224.94;5025813;28;20854;-72
2021/04/14 05:22:58;;;;;;;6.83;2.43;;;;;;;3.14;100.00;99221.66;5016036;28;20194;-70
2021/04/14 05:25:27;;;;;;;9.37;2.67;;;;;;;3.26;100.00;99223.28;5025448;28;20264;-70
2021/04/14 05:27:58;;;;;;;13.83;2.43;;;;;;;3.37;100.00;99231.16;5028009;28;20293;-71
2021/04/14 05:30:25;;;;;;;3.77;1.93;;;;;;;3.43;100.00;99229.81;5016660;28;20200;-70
2021/04/14 05:32:52;;;;;;;3.90;2.13;;;;;;;3.64;100.00;99228.03;5023112;28;20261;-71
2021/04/14 05:35:19;;;;;;;4.57;2.20;;;;;;;3.66;100.00;99226.94;5019865;28;20729;-70
2021/04/14 05:37:46;;;;;;;4.03;2.40;;;;;;;3.84;100.00;99229.84;5030999;28;20812;-71
2021/04/14 05:40:14;;;;;;;3.63;2.10;;;;;;;3.91;100.00;99231.81;5027860;28;20651;-70
2021/04/14 05:42:43;;;;;;;5.00;2.43;;;;;;;4.06;100.00;99235.81;5018003;28;20194;-71
2021/04/14 05:45:12;;;;;;;3.53;2.00;;;;;;;4.21;100.00;99234.50;5030010;28;20222;-73
2021/04/14 05:47:39;;;;;;;3.33;2.00;;;;;;;4.10;99.86;99237.22;5031509;28;20214;-71
2021/04/14 05:50:08;;;;;;;3.87;2.30;;;;;;;4.24;100.00;99236.91;5021127;28;20207;-68
2021/04/14 05:52:35;;;;;;;6.73;2.40;;;;;;;4.33;99.62;99241.41;5023968;28;20225;-71
2021/04/14 05:55:02;;;;;;;7.47;2.70;;;;;;;4.39;96.53;99238.22;5020299;28;20253;-71
2021/04/14 05:57:30;;;;;;;6.40;2.47;;;;;;;4.37;94.48;99242.78;5015440;28;20208;-70
2021/04/14 05:59:57;;;;;;;4.47;2.40;;;;;;;4.69;92.68;99245.28;5023011;28;20202;-71
2021/04/14 06:02:23;;;;;;;8.43;3.00;;;;;;;4.62;92.22;99234.41;5025417;28;20212;-71
2021/04/14 06:04:52;;;;;;;3.73;2.27;;;;;;;4.92;90.18;99236.19;5029761;28;20721;-71
2021/04/14 06:07:19;;;;;;;8.20;2.77;;;;;;;4.96;86.61;99238.41;5027970;28;20257;-72
2021/04/14 06:09:47;;;;;;;7.73;2.50;;;;;;;5.14;87.31;99239.41;5022628;28;20206;-73
2021/04/14 06:12:14;;;;;;;8.10;3.00;;;;;;;4.63;88.29;99248.47;5031088;28;20214;-71
2021/04/14 06:14:42;;;;;;;7.23;3.40;;;;;;;4.26;91.06;99242.88;5030078;28;20222;-71
2021/04/14 06:17:09;;;;;;;9.07;2.50;;;;;;;5.00;88.37;99241.59;5029965;28;20210;-75
2021/04/14 06:19:36;;;;;;;7.37;2.70;;;;;;;4.87;86.89;99241.03;5022288;28;20203;-73
2021/04/14 06:22:03;;;;;;;7.17;2.90;;;;;;;5.00;87.17;99238.97;5028464;28;20198;-70
2021/04/14 06:24:30;;;;;;;8.00;2.57;;;;;;;5.63;83.71;99233.19;5020397;28;20696;-72
2021/04/14 06:27:00;;;;;;;7.23;2.37;;;;;;;5.95;80.17;99245.13;5022985;28;20286;-75
2021/04/14 06:29:27;;;;;;;7.07;2.50;;;;;;;6.03;79.26;99247.09;5020100;28;20199;-75
2021/04/14 06:31:56;;;;;;;7.13;3.10;;;;;;;6.27;76.92;99244.81;5023472;28;20237;-74
2021/04/14 06:34:24;;;;;;;5.20;2.60;;;;;;;6.71;74.82;99252.03;5012039;28;20221;-76
2021/04/14 06:36:54;;;;;;;4.53;2.67;;;;;;;6.99;71.43;99259.88;5013168;28;20759;-73
2021/04/14 06:39:25;;;;;;;4.83;3.03;;;;;;;6.85;71.89;99248.91;5019679;28;20207;-74
2021/04/14 06:42:08;;;;;;;8.63;3.30;;;;;;;5.82;77.99;99246.41;5023751;28;20200;-73
2021/04/14 06:45:01;;;;;;;8.20;3.60;;;;;;;5.82;79.77;99244.63;5029775;28;20579;-72
2021/04/14 06:47:37;;;;;;;4.83;3.27;;;;;;;6.08;79.74;99250.13;5029781;28;20650;-78
2021/04/14 06:50:09;;;;;;;6.47;3.30;;;;;;;6.10;78.65;99248.22;5025068;28;20206;-73
2021/04/14 06:52:41;;;;;;;5.10;3.40;;;;;;;6.07;77.58;99245.81;5023142;28;20215;-74
2021/04/14 06:55:13;;;;;;;6.07;3.40;;;;;;;6.03;78.80;99241.78;5029819;28;20228;-80
2021/04/14 06:57:45;;;;;;;6.80;3.53;;;;;;;6.49;75.60;99249.78;5022431;28;20256;-79
2021/04/14 07:00:19;;;;;;;6.83;3.37;;;;;;;6.68;68.95;99260.28;5030322;28;20291;-77
2021/04/14 07:02:50;;;;;;;6.53;2.43;;;;;;;6.82;67.43;99262.47;5028707;28;20210;-76
2021/04/14 07:05:20;;;;;;;3.47;2.00;;;;;;;6.69;66.19;99264.59;5024169;28;20289;-76
2021/04/14 07:07:50;;;;;;;3.40;1.93;;;;;;;6.36;67.15;99265.16;5026033;28;20202;-76
2021/04/14 07:10:19;;;;;;;5.47;1.77;;;;;;;5.82;69.66;99259.66;5030301;28;20574;-74
2021/04/14 07:12:46;;;;;;;5.37;2.10;;;;;;;5.63;71.54;99257.03;5030311;28;20230;-74
2021/04/14 07:15:16;;;;;;;3.73;2.03;;;;;;;5.67;71.23;99261.03;5025177;28;20306;-73
2021/04/14 07:18:11;;;;;;;13.00;2.70;;;;;;;7.40;80.56;99251.34;5033070;28;20202;-74
2021/04/14 07:20:42;;;;;;;3.93;1.90;;;;;;;6.90;64.89;99278.50;5027801;28;20199;-75
2021/04/14 07:23:29;;;;;;;7.30;2.37;;;;;;;6.19;70.27;99266.72;5025891;28;20263;-74
2021/04/14 07:25:59;;;;;;;9.33;2.37;;;;;;;5.88;72.36;99264.38;5030915;28;20226;-75
2021/04/14 07:28:51;;;;;;;6.03;2.60;;;;;;;5.69;72.69;99259.09;5019403;28;20300;-75
2021/04/14 07:31:24;;;;;;;5.27;2.47;;;;;;;6.38;70.41;99257.88;5023151;28;20567;-74
2021/04/14 07:34:03;;;;;;;3.80;2.47;;;;;;;6.22;71.79;99255.00;5032603;28;20213;-76
2021/04/14 07:36:38;;;;;;;4.10;2.20;;;;;;;6.58;69.16;99252.38;5030040;28;20195;-76
2021/04/14 07:39:11;;;;;;;1.97;1.73;;;;;;;6.00;69.75;99248.19;5022547;28;20585;-75
2021/04/14 07:41:43;;;;;;;5.43;1.83;;;;;;;6.39;69.10;99256.94;5030181;28;20295;-75
2021/04/14 07:44:15;;;;;;;4.60;1.90;;;;;;;6.37;69.56;99256.22;5026532;28;20303;-75
2021/04/14 07:46:46;;;;;;;7.30;2.10;;;;;;;6.38;68.54;99253.44;5026158;28;20216;-75
2021/04/14 07:49:16;;;;;;;5.33;2.20;;;;;;;7.15;65.72;99253.91;5029373;28;20199;-75
2021/04/14 07:51:43;;;;;;;5.80;2.30;;;;;;;7.23;64.56;99254.00;5029333;28;20231;-76
2021/04/14 07:54:14;;;;;;;6.47;2.30;;;;;;;6.72;67.78;99251.91;5030001;28;20253;-75
2021/04/14 07:56:43;;;;;;;6.87;2.50;;;;;;;7.33;63.88;99258.25;5029199;28;20282;-75
2021/04/14 07:59:12;;;;;;;4.90;2.77;;;;;;;7.49;62.37;99249.59;5032417;28;20665;-75
2021/04/14 08:01:50;;;;;;;4.23;2.47;;;;;;;7.72;62.34;99248.19;5024896;28;20212;-75
2021/04/14 08:04:21;;;;;;;6.23;2.93;;;;;;;6.81;67.19;99250.19;5022506;28;20219;-75
2021/04/14 08:06:48;;;;;;;8.20;2.87;;;;;;;7.37;64.59;99245.50;5027409;28;20204;-75
2021/04/14 08:09:18;;;;;;;6.90;2.67;;;;;;;7.57;63.53;99244.38;5028959;28;20693;-75
2021/04/14 08:11:45;;;;;;;7.20;2.97;;;;;;;8.11;60.59;99250.31;5027845;28;20224;-77
2021/04/14 08:14:14;;;;;;;5.00;2.27;;;;;;;7.90;61.26;99249.81;5023071;28;20247;-77
2021/04/14 08:16:43;;;;;;;6.93;2.60;;;;;;;7.74;65.42;99238.22;5027532;28;20235;-81
2021/04/14 08:19:20;;;;;;;4.77;2.67;;;;;;;7.67;64.32;99232.69;5036613;28;20207;-80
2021/04/14 08:21:55;;;;;;;5.30;2.50;;;;;;;7.82;63.91;99236.47;5028851;28;20220;-80
2021/04/14 08:24:29;;;;;;;4.47;2.33;;;;;;;7.75;62.55;99238.06;5031577;28;20733;-80
2021/04/14 08:26:59;;;;;;;4.83;1.93;;;;;;;7.33;62.11;99238.81;5029240;28;20217;-81
2021/04/14 08:29:26;;;;;;;6.83;2.40;;;;;;;8.20;59.98;99236.13;5025274;28;20267;-81
2021/04/14 08:31:54;;;;;;;5.60;2.70;;;;;;;8.78;57.16;99244.28;5030257;28;20708;-80
2021/04/14 08:34:27;;;;;;;2.53;2.00;;;;;;;8.18;59.29;99239.91;5032133;28;20305;-81
2021/04/14 08:36:58;;;;;;;7.23;2.50;;;;;;;8.24;59.08;99245.47;5033078;28;20240;-81
2021/04/14 08:39:27;;;;;;;6.77;2.50;;;;;;;7.76;60.73;99236.25;5025495;28;20197;-75
2021/04/14 08:42:08;;;;;;;4.33;2.20;;;;;;;8.53;58.21;99245.13;5025287;28;20301;-73
2021/04/14 08:44:37;;;;;;;5.37;2.40;;;;;;;8.87;56.88;99240.63;5024961;28;20221;-75
2021/04/14 08:47:16;;;;;;;3.90;2.43;;;;;;;8.61;58.85;99237.19;5025317;28;21131;-69
2021/04/14 08:49:45;;;;;;;4.50;2.23;;;;;;;8.21;59.83;99231.63;5026608;28;20248;-69
2021/04/14 08:52:16;;;;;;;7.00;2.40;;;;;;;8.26;60.10;99230.19;5028924;28;20226;-73
2021/04/14 08:54:43;;;;;;;4.93;2.10;;;;;;;8.39;59.26;99222.63;5028447;28;20239;-71
2021/04/14 08:57:10;;;;;;;2.87;1.97;;;;;;;9.15;56.75;99218.97;5025353;28;20239;-71
2021/04/14 08:59:39;;;;;;;3.87;1.90;;;;;;;9.15;54.36;99232.28;5030128;28;20360;-71
2021/04/14 09:02:07;;;;;;;5.53;2.00;;;;;;;8.60;53.60;99239.03;5026853;28;20682;-70
2021/04/14 09:04:35;;;;;;;4.40;2.10;;;;;;;8.72;56.13;99221.78;5024694;28;20246;-71
2021/04/14 09:07:04;;;;;;;4.00;2.10;;;;;;;8.97;55.66;99225.34;5021598;28;20349;-69
2021/04/14 09:09:41;;;;;;;5.07;2.20;;;;;;;9.12;53.08;99218.41;5026382;28;20203;-70
2021/04/14 09:12:09;;;;;;;3.80;1.70;;;;;;;9.19;52.82;99222.13;5027229;28;20253;-68
2021/04/14 09:14:37;;;;;;;2.73;1.70;;;;;;;9.15;51.84;99226.94;5025893;28;20232;-73
2021/04/14 09:17:05;;;;;;;3.27;1.80;;;;;;;9.17;50.93;99222.28;5031191;28;20303;-77
2021/04/14 09:19:35;;;;;;;2.87;1.63;;;;;;;8.98;50.55;99225.22;5030761;28;20613;-77
2021/04/14 09:22:04;;;;;;;8.20;2.13;;;;;;;8.84;49.51;99231.13;5030503;28;20198;-76
2021/04/14 09:24:44;;;;;;;8.47;2.37;;;;;;;9.24;48.70;99217.94;5024828;28;20254;-79
2021/04/14 09:27:24;;;;;;;5.13;2.00;;;;;;;9.25;49.30;99224.97;5032422;28;20206;-76
2021/04/14 09:30:00;;;;;;;4.67;1.77;;;;;;;9.97;47.67;99224.19;5024388;28;21817;-79
2021/04/14 09:32:50;;;;;;;4.50;2.00;;;;;;;10.85;46.02;99222.19;5029036;28;20249;-78
2021/04/14 09:35:20;;;;;;;5.23;1.90;;;;;;;9.82;45.54;99232.03;5028522;28;20230;-77
2021/04/14 09:37:48;;;;;;;2.20;1.63;;;;;;;9.62;47.30;99216.53;5028829;28;20541;-76
2021/04/14 09:40:27;;;;;;;4.67;2.20;;;;;;;9.82;47.90;99217.84;5026719;28;20217;-79
2021/04/14 09:42:54;;;;;;;5.20;1.70;;;;;;;9.83;43.54;99219.53;5029489;28;20655;-77
2021/04/14 09:45:33;;;;;;;2.50;1.80;;;;;;;9.96;44.43;99222.53;5029056;28;20218;-76
2021/04/14 09:48:16;;;;;;;4.93;1.90;;;;;;;9.35;44.84;99217.66;5033322;28;20225;-79
2021/04/14 09:50:44;;;;;;;4.10;1.47;;;;;;;9.64;43.91;99214.53;5028133;28;20240;-78
2021/04/14 09:53:26;;;;;;;4.13;1.87;;;;;;;10.99;42.94;99205.44;5032161;28;20226;-78
2021/04/14 09:55:57;;;;;;;5.07;1.70;;;;;;;9.63;43.69;99207.50;5029288;28;20225;-80
2021/04/14 09:58:28;;;;;;;2.90;1.60;;;;;;;10.03;42.76;99208.34;5029470;28;20206;-73
2021/04/14 10:00:57;;;;;;;2.47;1.60;;;;;;;10.03;43.40;99207.50;5024247;28;20211;-78
2021/04/14 10:03:29;;;;;;;2.93;1.37;;;;;;;11.10;40.77;99213.06;5030009;28;20337;-77
2021/04/14 10:06:01;;;;;;;2.53;1.30;;;;;;;10.08;39.17;99219.38;5028792;28;20222;-78
2021/04/14 10:08:29;;;;;;;4.13;1.50;;;;;;;9.64;42.51;99215.34;5030278;28;21137;-77
2021/04/14 10:10:56;;;;;;;3.40;1.20;;;;;;;9.87;40.40;99213.72;5028632;28;20214;-78
2021/04/14 10:13:29;;;;;;;2.37;1.30;;;;;;;10.40;38.16;99221.19;5027119;28;20234;-76
2021/04/14 10:15:57;;;;;;;2.20;1.20;;;;;;;10.68;37.64;99222.41;5029286;28;20794;-77
2021/04/14 10:18:26;;;;;;;3.30;1.50;;;;;;;10.45;38.26;99211.63;5025870;28;20202;-75
2021/04/14 10:20:54;;;;;;;2.23;1.10;;;;;;;10.13;37.84;99208.19;5027076;28;20215;-78
2021/04/14 10:23:23;;;;;;;1.33;1.13;;;;;;;10.12;37.35;99214.53;5028595;28;20195;-76
2021/04/14 10:26:01;;;;;;;3.63;1.37;;;;;;;10.07;37.15;99212.41;5024288;28;20275;-77
2021/04/14 10:28:28;;;;;;;4.33;1.60;;;;;;;10.85;36.43;99213.38;5024822;28;20211;-76
2021/04/14 10:31:04;;;;;;;1.90;1.50;;;;;;;9.87;38.30;99221.72;5029474;28;20207;-75
2021/04/14 10:33:30;;;;;;;3.23;1.43;;;;;;;9.60;41.71;99183.88;5031433;28;20261;-76
2021/04/14 10:36:10;;;;;;;3.40;1.63;;;;;;;10.34;40.90;99192.47;5027587;28;20238;-77
2021/04/14 10:38:37;;;;;;;3.20;1.50;;;;;;;9.80;41.44;99190.53;5025531;28;20203;-70
2021/04/14 10:41:15;;;;;;;3.23;1.70;;;;;;;9.48;40.79;99190.53;5031971;28;20286;-71
2021/04/14 10:43:42;;;;;;;3.03;1.90;;;;;;;10.10;39.87;99200.56;5027577;28;20670;-71
2021/04/14 10:46:13;;;;;;;3.67;1.57;;;;;;;10.19;40.13;99191.53;5029979;28;20222;-70
2021/04/14 10:48:43;;;;;;;3.00;1.50;;;;;;;9.41;41.35;99192.19;5026956;28;20222;-69
2021/04/14 10:51:18;;;;;;;3.97;1.60;;;;;;;9.36;42.23;99199.84;5029678;28;20214;-77
2021/04/14 10:53:46;;;;;;;5.40;1.57;;;;;;;9.48;44.75;99175.38;5027470;28;20261;-72
2021/04/14 10:56:16;;;;;;;3.93;1.60;;;;;;;9.16;49.64;99147.88;5028450;28;20230;-72
2021/04/14 10:58:43;;;;;;;5.93;1.50;;;;;;;9.04;51.32;99146.53;5032423;28;20199;-73
2021/04/14 11:01:12;;;;;;;3.23;1.57;;;;;;;8.79;52.89;99136.81;5028851;28;20266;-73
2021/04/14 11:03:42;;;;;;;7.43;2.30;;;;;;;9.26;52.35;99138.72;5028231;28;20221;-72
2021/04/14 11:06:10;;;;;;;4.47;1.70;;;;;;;9.22;49.39;99149.88;5029235;28;20222;-71
2021/04/14 11:08:37;;;;;;;7.73;1.80;;;;;;;9.93;46.46;99158.84;5024915;28;20207;-70
2021/04/14 11:11:04;;;;;;;3.40;1.57;;;;;;;10.04;46.72;99155.91;5029833;28;20218;-73
2021/04/14 11:13:35;;;;;;;3.50;1.60;;;;;;;9.52;50.31;99149.22;5029605;28;20789;-76
2021/04/14 11:16:02;;;;;;;4.53;2.00;;;;;;;9.23;55.75;99136.38;5028708;28;20415;-73
2021/04/14 11:18:34;;;;;;;6.13;2.23;;;;;;;8.86;53.82;99148.47;5027602;28;20218;-70
2021/04/14 11:21:08;;;;;;;2.10;1.60;;;;;;;9.06;51.46;99148.03;5030321;28;20216;-72
2021/04/14 11:23:37;;;;;;;2.50;1.67;;;;;;;8.31;46.76;99169.38;5027057;28;20206;-71
2021/04/14 11:26:06;;;;;;;1.77;1.50;;;;;;;9.09;45.43;99166.31;5031934;28;20329;-72
2021/04/14 11:28:41;;;;;;;2.33;1.60;;;;;;;8.68;46.18;99158.41;5030787;28;20199;-73
2021/04/14 11:31:08;;;;;;;4.27;1.60;;;;;;;8.94;44.74;99161.81;5028345;28;20213;-72
2021/04/14 11:33:38;;;;;;;2.50;1.20;;;;;;;8.90;43.49;99163.97;5029794;28;20232;-71
2021/04/14 11:36:11;;;;;;;3.20;1.67;;;;;;;9.46;40.79;99176.53;5027207;28;20321;-70
2021/04/14 11:38:39;;;;;;;7.60;1.33;;;;;;;9.80;37.49;99186.03;5027205;28;20202;-72
2021/04/14 11:41:21;;;;;;;2.40;1.30;;;;;;;9.84;38.54;99173.22;5028870;28;20651;-69
2021/04/14 11:43:49;;;;;;;1.60;1.20;;;;;;;9.50;38.51;99173.41;5025785;28;20206;-76
2021/04/14 11:46:33;;;;;;;3.80;1.20;;;;;;;10.25;36.02;99178.34;5031541;28;20231;-76